Terminal Aerodrome Forecast
Issued by NWS

Home | Current Version | Previous Version | Text Only | Print | Product List | Glossary On
Versions: 1 2 3 4 5 6 7 8 9 10 11 12 13 14 15 16 17 18 19 20 21 22 23
000
FTUS45 KREV 290500
TAFCXP
TAF
KCXP 290522Z 2906/3006 23011G18KT P6SM FEW060 SCT120 SCT200
      WS020/25040KT
     FM291100 20010G18KT P6SM SCT060 BKN120 WS010/25035KT
     FM291600 21012G20KT P6SM VCSH SCT050 BKN100
     FM292000 23014G26KT P6SM -SHRA SCT045 BKN080
     FM300200 30011KT P6SM SCT050 BKN100=

USA.gov is the U.S. government's official web portal to all federal, state and local government web resources and services.